Andrews Air Force Base
KADW : now visible

Airfield :











YOU CAN JOIN US ON...

 
LOGIN :

Register | Disclaimer

   EN    FR    IT 

 









Legend :    VFR   Marginal VFR   IFR   Intensive IFR   Very Intensive IFR
Visi :
Ceiling :
>= 8 km
>= 3000ft
5 to 8 km
1000 to 3000 ft
1500m to 5 km
500 to 1000 ft
800 to 1500m
200 to 500 ft
< 800m
< 200 ft
Symbols :   Thunderstorms  Fog  Heavy snow  Heavy precipitations  Wind > 20 kt






- Airport Elevation : 280 ft


KADW - Andrews Air Force Base

CURRENT METAR :
  • 040156Z AUTO 00000KT 10SM BKN075 12/03 A2990 RMK AO2 SLP132 T01180030 $

EXPIRED METARs :
  • 040056Z AUTO 02005KT 10SM OVC075 13/03 A2987 RMK AO2 SLP122 T01290030 $

TAF TAF KADW
Valid from the 04 at 01:00 until the 05 at 07:00 UTC


040100Z 0401/0507 32010G25KT 9999 BKN080 520002 QNH2978INS
BECMG 0405/0406 33010G20KT 9999 BKN030 OVC050 QNH3000INS
BECMG 0414/0415 05008KT 9999 BKN020 QNH3007INS
BECMG 0416/0417 05008KT 9999 BKN050 QNH2998INS TX15/0420Z TN09/0411Z



MET'MAP, your aeronautical weather chart ! - Copyright ORBIFLY December 2007 - Disclaimer

ORBIFLY MET'MAP TEAM :

Programming & Development : Alexandra Zaïnal
Concept & original design : Baudouin d'Aumeries
Assistance for programming : Marc-Olivier Méhu
Technical & hardware support : Manuel Goepfert

Contact : metmap@orbifly.com




SOURCES & CREDITS :

   NOAA       Earth
Advisory